Time;durP1;ratioP1;P1;durP2;ratioP2;P2;SDS_P1;SDS_P2;PMS_P1;PMS_P2;Temp;Humidity;BMP_temperature;BMP_pressure;BME280_temperature;BME280_humidity;BME280_pressure;Samples;Min_cycle;Max_cycle;Signal;HPM_P1;HPM_P2
2022/06/02 00:02:27;;;;;;;17.83;4.93;;;;;;;29.83;61.08;100605.09;5071533;28;66894;-37
2022/06/02 00:05:28;;;;;;;6.80;5.97;;;;;;;30.28;65.36;100680.72;5064127;28;69589;-38
2022/06/02 00:08:25;;;;;;;9.43;6.40;;;;;;;29.98;66.46;100609.38;5067553;28;66297;-38
2022/06/02 00:11:30;;;;;;;24.20;7.63;;;;;;;30.44;68.46;100682.03;5078241;28;69633;-37
2022/06/02 00:14:10;;;;;;;14.05;7.50;;;;;;;30.57;69.48;100681.09;5071419;28;66457;-38
2022/06/02 00:17:14;;;;;;;17.58;7.65;;;;;;;30.58;70.66;100688.13;5074046;28;69168;-36
2022/06/02 00:20:02;;;;;;;17.65;8.35;;;;;;;30.48;70.94;100666.19;5062003;28;65472;-37
2022/06/02 00:23:11;;;;;;;9.73;8.10;;;;;;;30.62;71.68;100689.38;5068389;28;70482;-37
2022/06/02 00:26:16;;;;;;;17.38;8.27;;;;;;;30.80;68.39;100704.00;5055311;28;65408;-37
2022/06/02 00:28:59;;;;;;;14.05;7.18;;;;;;;30.94;66.22;100703.63;5073246;28;70746;-36
2022/06/02 00:31:54;;;;;;;8.82;6.15;;;;;;;30.73;65.82;100658.03;5075700;28;65585;-36
2022/06/02 00:34:54;;;;;;;11.13;6.43;;;;;;;31.08;66.07;100715.16;5071853;28;70105;-37
2022/06/02 00:37:28;;;;;;;23.55;9.10;;;;;;;31.13;69.52;100720.72;5059831;28;65303;-36
2022/06/02 00:40:02;;;;;;;19.02;9.65;;;;;;;31.13;71.47;100730.75;5063776;28;69973;-34
2022/06/02 00:42:49;;;;;;;12.55;7.90;;;;;;;31.13;71.50;100733.44;5059285;28;65074;-36
2022/06/02 00:45:21;;;;;;;13.38;8.82;;;;;;;30.71;70.91;100660.94;5071656;28;70306;-36
2022/06/02 00:48:10;;;;;;;15.20;8.55;;;;;;;31.03;71.90;100736.66;5067170;28;65331;-35
2022/06/02 00:51:03;;;;;;;20.17;8.43;;;;;;;31.09;71.48;100745.78;5067681;28;70201;-36
2022/06/02 01:00:18;;;;;;;7.05;6.18;;;;;;;31.16;69.82;100755.50;5076111;28;67102;-37
2022/06/02 01:02:52;;;;;;;7.07;6.00;;;;;;;31.37;67.93;100758.81;5056260;28;69045;-36
2022/06/02 01:05:49;;;;;;;9.85;7.03;;;;;;;31.08;68.45;100698.06;5067535;28;66577;-36
2022/06/02 01:08:45;;;;;;;11.18;7.13;;;;;;;31.40;69.00;100747.56;5074638;28;70378;-37
2022/06/02 01:11:15;;;;;;;7.85;6.78;;;;;;;31.61;67.02;100749.75;5041250;28;65934;-37
2022/06/02 01:14:25;;;;;;;9.75;7.05;;;;;;;31.59;67.71;100756.47;5046962;28;70711;-37
2022/06/02 01:17:31;;;;;;;9.60;6.18;;;;;;;31.65;67.87;100757.44;5063669;28;65426;-37
2022/06/02 01:20:11;;;;;;;8.27;6.13;;;;;;;31.76;67.16;100748.53;5076763;28;70473;-35
2022/06/02 01:23:13;;;;;;;6.38;5.75;;;;;;;31.42;67.12;100693.91;5059141;28;65237;-36
2022/06/02 01:26:02;;;;;;;6.28;5.78;;;;;;;31.54;66.10;100697.53;5067931;28;69653;-35
2022/06/02 01:28:56;;;;;;;7.45;6.15;;;;;;;31.92;66.54;100756.06;5064323;28;66491;-37
2022/06/02 01:31:44;;;;;;;8.57;6.47;;;;;;;31.95;66.34;100758.31;5068116;28;69472;-35
2022/06/02 01:34:52;;;;;;;7.88;5.95;;;;;;;31.92;66.68;100763.38;5076830;28;65558;-36
2022/06/02 01:37:41;;;;;;;7.78;5.85;;;;;;;32.03;65.51;100771.53;5080068;28;70115;-36
2022/06/02 01:40:46;;;;;;;9.98;6.72;;;;;;;32.04;65.97;100767.78;5076868;28;65486;-37
2022/06/02 01:43:36;;;;;;;10.00;6.80;;;;;;;31.98;65.80;100763.31;5062237;28;70239;-37
2022/06/02 01:46:16;;;;;;;9.90;5.80;;;;;;;32.12;64.82;100774.75;5066874;28;66632;-38
2022/06/02 01:49:28;;;;;;;11.02;6.45;;;;;;;31.98;65.67;100768.72;5045136;28;69076;-36
2022/06/02 01:52:07;;;;;;;6.80;5.63;;;;;;;32.16;65.15;100767.00;4960994;28;65796;-36
2022/06/02 01:55:08;;;;;;;8.40;5.72;;;;;;;32.11;65.57;100766.88;5067640;28;69943;-37
2022/06/02 01:58:10;;;;;;;8.70;5.45;;;;;;;32.17;65.40;100761.31;5055585;28;66555;-36
2022/06/02 02:00:46;;;;;;;9.02;6.72;;;;;;;31.88;64.62;100697.88;5048526;28;68884;-37
2022/06/02 02:03:19;;;;;;;7.18;5.68;;;;;;;32.30;64.11;100760.31;5056206;28;65115;-37
2022/06/02 02:06:09;;;;;;;6.10;5.50;;;;;;;31.95;64.76;100714.06;5047458;28;70436;-36
2022/06/02 02:09:07;;;;;;;7.97;5.38;;;;;;;32.25;64.32;100762.88;5051730;28;66685;-36
2022/06/02 02:11:38;;;;;;;7.18;5.75;;;;;;;32.36;64.08;100764.78;5057093;28;70067;-37
2022/06/02 02:14:39;;;;;;;7.38;6.03;;;;;;;32.31;64.67;100770.09;5058011;28;65688;-36
2022/06/02 02:17:35;;;;;;;12.50;6.50;;;;;;;32.32;64.84;100774.47;5046493;28;69675;-36
2022/06/02 02:20:23;;;;;;;6.70;5.90;;;;;;;32.41;64.14;100762.22;5021578;28;66376;-35
2022/06/02 02:23:22;;;;;;;8.65;6.15;;;;;;;32.42;63.95;100760.31;5053243;28;70548;-36
2022/06/02 02:26:11;;;;;;;7.90;5.88;;;;;;;32.09;63.87;100715.53;5036776;28;65837;-36
2022/06/02 02:29:19;;;;;;;8.30;5.57;;;;;;;32.38;64.28;100768.13;5041081;28;69418;-37
2022/06/02 02:32:02;;;;;;;7.47;6.10;;;;;;;32.39;63.84;100742.59;5058392;28;66729;-37
2022/06/02 02:34:36;;;;;;;6.45;5.85;;;;;;;32.53;63.42;100758.72;5059643;28;70305;-36
2022/06/02 02:37:31;;;;;;;6.03;5.47;;;;;;;32.50;63.69;100749.16;5057316;28;66907;-36
2022/06/02 02:40:06;;;;;;;6.85;6.15;;;;;;;32.53;63.53;100737.81;5057492;28;70042;-36
2022/06/02 02:42:54;;;;;;;7.80;6.15;;;;;;;32.55;63.51;100732.16;5039920;28;65461;-36
2022/06/02 02:45:51;;;;;;;7.18;5.53;;;;;;;32.56;63.61;100726.47;5049769;28;70534;-36
2022/06/02 02:48:56;;;;;;;9.63;5.75;;;;;;;32.57;63.50;100727.31;5046799;28;66373;-36
2022/06/02 02:52:10;;;;;;;9.30;6.07;;;;;;;32.27;63.37;100671.22;5047281;28;70167;-37
2022/06/02 02:55:04;;;;;;;6.63;5.80;;;;;;;32.34;62.90;100663.75;5036087;28;66593;-36
2022/06/02 02:58:07;;;;;;;8.00;5.60;;;;;;;32.39;62.77;100672.03;5049519;28;69504;-38
2022/06/02 03:00:59;;;;;;;;;;;;;;;32.39;63.73;100726.31;5039181;28;66096;-38
2022/06/02 03:03:49;;;;;;;9.80;5.80;;;;;;;32.64;63.37;100722.59;5061032;28;70619;-36
2022/06/02 03:06:26;;;;;;;5.93;5.32;;;;;;;32.78;62.75;100718.56;5055286;28;66190;-36
2022/06/02 03:09:06;;;;;;;11.77;5.97;;;;;;;32.83;62.66;100709.72;5043886;28;69995;-36
2022/06/02 03:11:43;;;;;;;9.02;6.05;;;;;;;32.83;62.51;100696.97;5027620;28;65168;-36
2022/06/02 03:14:30;;;;;;;11.00;6.03;;;;;;;32.46;62.28;100633.94;5048855;28;69552;-36
2022/06/02 03:17:20;;;;;;;6.10;5.45;;;;;;;32.84;62.50;100685.00;5045458;28;66652;-36
2022/06/02 03:20:00;;;;;;;9.13;4.95;;;;;;;32.91;62.23;100680.28;5053933;28;69815;-37
2022/06/02 03:22:45;;;;;;;5.55;5.00;;;;;;;32.96;62.10;100686.88;5034187;28;66465;-37
2022/06/02 03:25:36;;;;;;;6.55;5.57;;;;;;;32.98;61.97;100679.31;5059709;28;69908;-35
2022/06/02 03:28:22;;;;;;;7.80;5.43;;;;;;;32.63;61.97;100624.00;5055598;28;66334;-36
2022/06/02 03:31:12;;;;;;;6.55;5.88;;;;;;;33.07;62.07;100677.91;5042902;28;70336;-38
2022/06/02 03:34:07;;;;;;;7.28;5.13;;;;;;;32.97;62.00;100675.78;5048410;28;66415;-37
2022/06/02 03:36:54;;;;;;;5.75;4.90;;;;;;;33.09;61.93;100665.72;5043717;28;69759;-37
2022/06/02 03:39:33;;;;;;;7.47;5.53;;;;;;;33.13;61.96;100664.22;5054995;28;66551;-37
2022/06/02 03:42:34;;;;;;;6.32;5.43;;;;;;;33.10;62.00;100661.16;5053698;28;69924;-36
2022/06/02 03:45:41;;;;;;;6.10;5.50;;;;;;;33.04;62.02;100653.94;5044824;28;66032;-37
2022/06/02 03:48:36;;;;;;;5.32;4.85;;;;;;;33.11;61.69;100654.63;5061007;28;70474;-36
2022/06/02 03:51:44;;;;;;;8.35;5.28;;;;;;;33.13;61.84;100650.63;5044751;28;66528;-36
2022/06/02 03:54:40;;;;;;;7.65;5.03;;;;;;;33.17;61.78;100644.69;5049345;28;70485;-37
2022/06/02 03:57:35;;;;;;;7.57;5.20;;;;;;;33.28;61.43;100636.50;5063170;28;65327;-39
2022/06/02 04:00:09;;;;;;;7.13;5.00;;;;;;;32.96;60.96;100567.34;5075313;28;70243;-36
2022/06/02 04:02:43;;;;;;;5.47;4.97;;;;;;;33.37;61.16;100636.91;5062435;28;65362;-37
2022/06/02 04:05:16;;;;;;;10.30;5.90;;;;;;;33.40;61.04;100632.91;5079068;28;70123;-36
2022/06/02 04:07:56;;;;;;;5.25;4.75;;;;;;;33.41;61.13;100640.00;5074188;28;66986;-37
2022/06/02 04:10:54;;;;;;;5.00;4.60;;;;;;;33.32;61.08;100626.78;5074778;28;69764;-37
2022/06/02 04:13:45;;;;;;;5.75;4.82;;;;;;;33.42;61.01;100625.31;5059184;28;65961;-37
2022/06/02 04:16:38;;;;;;;6.05;5.35;;;;;;;33.40;61.21;100624.75;5075522;28;69435;-37
2022/06/02 04:22:24;;;;;;;5.82;5.18;;;;;;;33.31;61.42;100629.75;5071668;28;70269;-37
2022/06/02 04:25:19;;;;;;;7.68;5.03;;;;;;;33.31;61.34;100619.69;5074708;28;65546;-38
2022/06/02 04:28:02;;;;;;;14.98;5.45;;;;;;;33.37;61.21;100621.44;5075720;28;69490;-36
2022/06/02 04:30:48;;;;;;;5.47;5.00;;;;;;;33.32;61.19;100609.63;5070252;28;66132;-37
2022/06/02 04:33:34;;;;;;;8.85;5.20;;;;;;;33.31;61.31;100603.38;5037888;28;69614;-37
2022/06/02 04:36:13;;;;;;;5.78;4.95;;;;;;;33.37;61.39;100598.84;5077121;28;66414;-38
2022/06/02 04:39:08;;;;;;;5.72;4.53;;;;;;;33.26;61.70;100602.47;5059870;28;70002;-37
2022/06/02 04:42:23;;;;;;;5.45;4.95;;;;;;;33.17;62.02;100610.19;5066671;28;66511;-37
2022/06/02 04:44:59;;;;;;;6.20;4.90;;;;;;;33.33;61.79;100603.16;5018417;28;69318;-37
2022/06/02 04:48:12;;;;;;;6.13;5.05;;;;;;;33.26;62.01;100603.28;5014546;28;66346;-36
2022/06/02 04:50:42;;;;;;;5.70;4.80;;;;;;;33.33;62.03;100601.25;5032591;28;70665;-36
2022/06/02 04:53:42;;;;;;;5.55;4.57;;;;;;;33.37;61.82;100601.56;5071567;28;66701;-36
2022/06/02 04:56:28;;;;;;;8.07;4.90;;;;;;;33.37;61.86;100607.84;5002753;28;70519;-37
2022/06/02 04:59:18;;;;;;;6.43;5.13;;;;;;;33.39;61.97;100599.44;5081396;28;65830;-36
2022/06/02 05:01:58;;;;;;;4.85;4.43;;;;;;;33.03;61.78;100543.59;5079868;28;69615;-37
2022/06/02 05:04:52;;;;;;;6.88;5.22;;;;;;;33.34;62.38;100608.31;5080506;28;66293;-36
2022/06/02 05:07:53;;;;;;;5.20;4.57;;;;;;;33.36;62.18;100606.19;5080659;28;69863;-37
2022/06/02 05:10:43;;;;;;;5.75;5.13;;;;;;;33.43;62.13;100626.97;5060415;28;66237;-36
2022/06/02 05:13:28;;;;;;;5.93;4.63;;;;;;;33.43;62.00;100651.44;5058609;28;69987;-36
2022/06/02 05:16:29;;;;;;;7.38;3.80;;;;;;;33.36;62.00;100633.38;5071754;28;65286;-37
2022/06/02 05:19:29;;;;;;;4.18;3.78;;;;;;;33.23;62.50;100619.25;5061091;28;70304;-37
2022/06/02 05:22:33;;;;;;;4.75;4.30;;;;;;;33.32;62.63;100624.06;5064512;28;66678;-35
2022/06/02 05:25:25;;;;;;;4.70;4.30;;;;;;;32.91;63.18;100547.16;5052063;28;70068;-37
2022/06/02 05:27:58;;;;;;;6.65;4.68;;;;;;;33.34;62.99;100586.56;5079462;28;66435;-37
2022/06/02 05:31:24;;;;;;;5.25;4.75;;;;;;;33.10;64.01;100563.31;5079018;28;70862;-37
2022/06/02 05:34:18;;;;;;;5.45;4.60;;;;;;;32.83;63.75;100492.41;5078649;28;66042;-36
2022/06/02 05:37:07;;;;;;;4.75;4.28;;;;;;;33.27;63.51;100564.16;5077227;28;69968;-37
2022/06/02 05:40:11;;;;;;;10.43;4.38;;;;;;;33.18;63.91;100564.78;5068533;28;66009;-37
2022/06/02 05:42:50;;;;;;;5.00;4.50;;;;;;;33.22;63.79;100550.47;5066072;28;70529;-36
2022/06/02 05:45:41;;;;;;;8.52;4.93;;;;;;;32.98;64.27;100516.31;5065217;28;66229;-37
2022/06/02 05:48:43;;;;;;;6.95;4.38;;;;;;;33.03;64.60;100546.31;5071059;28;69662;-36
2022/06/02 05:51:30;;;;;;;6.88;4.32;;;;;;;33.19;64.12;100566.47;5064484;28;65368;-38
2022/06/02 05:54:14;;;;;;;7.70;4.90;;;;;;;33.18;64.25;100583.81;5064940;28;70421;-38
2022/06/02 05:57:10;;;;;;;6.53;4.13;;;;;;;33.15;64.22;100583.25;5066496;28;65339;-37
2022/06/02 06:00:27;;;;;;;7.82;4.40;;;;;;;33.00;64.83;100566.66;5060181;28;70788;-38
2022/06/02 06:03:34;;;;;;;4.82;4.30;;;;;;;32.98;64.90;100543.47;5037478;28;66462;-37
2022/06/02 06:06:14;;;;;;;5.80;4.40;;;;;;;33.01;64.85;100532.16;5057880;28;70022;-37
2022/06/02 06:09:21;;;;;;;4.88;4.43;;;;;;;32.97;64.70;100545.38;5058264;28;66446;-36
2022/06/02 06:12:26;;;;;;;4.70;4.30;;;;;;;32.96;64.60;100545.59;5077254;28;70896;-37
2022/06/02 06:15:26;;;;;;;5.38;4.43;;;;;;;32.91;64.77;100544.44;5062405;28;67062;-36
2022/06/02 06:18:25;;;;;;;4.60;4.03;;;;;;;32.91;64.55;100555.31;5079464;28;70134;-36
2022/06/02 06:21:18;;;;;;;6.30;4.25;;;;;;;32.94;64.56;100557.53;5064998;28;65278;-37
2022/06/02 06:24:05;;;;;;;4.65;4.18;;;;;;;32.93;64.75;100553.19;5062353;28;70243;-37
2022/06/02 06:26:45;;;;;;;5.55;4.30;;;;;;;33.01;64.27;100549.28;5079245;28;66206;-35
2022/06/02 06:29:24;;;;;;;4.75;4.22;;;;;;;33.00;64.37;100536.75;5065232;28;69127;-35
2022/06/02 06:32:27;;;;;;;8.38;4.97;;;;;;;32.90;64.18;100531.09;5077526;28;65406;-35
2022/06/02 06:35:24;;;;;;;4.78;4.13;;;;;;;32.91;64.21;100538.19;5059141;28;69108;-36
2022/06/02 06:38:06;;;;;;;6.50;4.40;;;;;;;32.96;64.22;100548.31;5061310;28;66990;-36
2022/06/02 06:41:11;;;;;;;7.97;4.47;;;;;;;32.89;64.20;100538.44;5079528;28;70620;-36
2022/06/02 06:44:09;;;;;;;4.50;3.65;;;;;;;32.82;64.49;100545.91;5070069;28;66082;-36
2022/06/02 06:47:06;;;;;;;5.05;4.20;;;;;;;32.53;64.24;100487.19;5062905;28;70267;-36
2022/06/02 06:50:10;;;;;;;6.28;4.03;;;;;;;32.46;64.53;100488.16;5067992;28;66554;-36
2022/06/02 06:52:50;;;;;;;6.43;4.10;;;;;;;32.96;64.12;100545.59;5068300;28;69076;-36
2022/06/02 06:55:50;;;;;;;8.20;4.10;;;;;;;32.91;64.09;100527.31;5068896;28;65715;-36
2022/06/02 06:58:51;;;;;;;4.80;4.30;;;;;;;32.61;64.12;100475.94;5079898;28;70313;-36
2022/06/02 07:01:39;;;;;;;6.13;4.47;;;;;;;32.93;64.09;100515.16;5078686;28;66250;-36
2022/06/02 07:04:37;;;;;;;4.20;3.80;;;;;;;32.85;64.57;100518.25;5073244;28;69485;-36
2022/06/02 07:07:13;;;;;;;6.22;3.95;;;;;;;32.93;64.07;100512.44;5068435;27;67647;-36
2022/06/02 07:10:04;;;;;;;4.35;3.95;;;;;;;32.96;63.95;100502.13;5075486;28;70129;-36
2022/06/02 07:12:56;;;;;;;4.65;4.20;;;;;;;32.95;64.07;100506.75;5072353;28;66043;-37
2022/06/02 07:15:53;;;;;;;8.75;4.15;;;;;;;32.96;64.06;100507.56;5063097;28;69998;-36
2022/06/02 07:18:29;;;;;;;5.13;4.63;;;;;;;32.97;63.76;100509.22;5066698;28;65342;-37
2022/06/02 07:21:29;;;;;;;4.47;4.00;;;;;;;32.60;63.89;100439.84;5062343;28;69495;-36
2022/06/02 07:24:30;;;;;;;7.75;4.10;;;;;;;32.90;63.91;100496.63;5073651;28;65945;-36
2022/06/02 07:27:27;;;;;;;9.93;4.28;;;;;;;32.87;64.20;100499.81;5061743;28;69977;-36
2022/06/02 07:30:09;;;;;;;4.38;3.97;;;;;;;32.99;63.70;100501.63;5067544;28;65428;-37
2022/06/02 07:33:04;;;;;;;5.55;4.20;;;;;;;32.99;63.84;100498.91;5069453;28;69644;-37
2022/06/02 07:35:59;;;;;;;8.88;4.20;;;;;;;32.88;64.05;100490.59;5079473;28;66403;-37
2022/06/02 07:38:58;;;;;;;4.75;4.32;;;;;;;32.96;63.86;100491.25;5081154;28;70473;-36
2022/06/02 07:41:32;;;;;;;4.05;3.75;;;;;;;32.98;63.76;100489.94;5073080;28;65935;-37
2022/06/02 07:44:11;;;;;;;5.22;4.00;;;;;;;33.00;63.63;100498.72;5069168;28;70068;-37
2022/06/02 07:47:12;;;;;;;4.10;3.70;;;;;;;32.99;63.84;100501.63;5079225;28;66287;-37
2022/06/02 07:49:49;;;;;;;4.25;3.85;;;;;;;32.98;63.71;100510.88;5074346;28;70492;-37
2022/06/02 07:52:35;;;;;;;4.43;4.03;;;;;;;32.52;63.93;100431.25;5062220;28;65705;-38
2022/06/02 07:55:20;;;;;;;5.65;3.92;;;;;;;32.83;63.81;100492.41;5055403;28;69910;-37
2022/06/02 07:58:10;;;;;;;4.50;4.10;;;;;;;32.59;64.05;100456.34;5064287;28;65811;-37
2022/06/02 08:00:52;;;;;;;6.35;3.95;;;;;;;32.68;64.00;100457.59;5034015;28;69653;-37
2022/06/02 08:03:33;;;;;;;5.85;4.22;;;;;;;32.96;64.16;100502.13;5058579;28;65689;-37
2022/06/02 08:06:29;;;;;;;4.43;4.00;;;;;;;32.96;64.28;100502.13;5043594;28;69596;-36
2022/06/02 08:09:34;;;;;;;4.70;4.30;;;;;;;32.96;63.86;100504.84;5034187;28;66552;-37
2022/06/02 08:12:43;;;;;;;12.77;4.50;;;;;;;32.97;64.24;100498.38;5014290;28;70127;-42
2022/06/02 08:15:35;;;;;;;5.20;4.70;;;;;;;32.88;64.82;100501.47;4973322;28;65919;-36
2022/06/02 08:18:31;;;;;;;6.80;3.93;;;;;;;32.80;64.83;100504.56;5040228;28;70061;-37
2022/06/02 08:21:16;;;;;;;5.03;4.05;;;;;;;32.89;64.54;100507.72;5040053;28;66573;-37
2022/06/02 08:24:07;;;;;;;7.13;4.28;;;;;;;32.52;64.58;100448.38;5023234;28;70301;-37
2022/06/02 08:27:15;;;;;;;5.00;4.50;;;;;;;32.84;64.79;100522.03;5035933;28;66190;-38
2022/06/02 08:30:10;;;;;;;6.55;4.20;;;;;;;32.83;64.75;100533.16;5042405;28;69677;-37
2022/06/02 08:32:47;;;;;;;7.28;4.43;;;;;;;32.92;64.36;100529.78;5046987;28;65436;-37
2022/06/02 08:35:40;;;;;;;5.13;4.53;;;;;;;32.91;64.47;100541.72;5039767;28;70049;-38
2022/06/02 08:38:23;;;;;;;4.70;4.30;;;;;;;32.55;64.58;100498.66;5048233;28;66182;-37
2022/06/02 08:41:28;;;;;;;7.82;4.55;;;;;;;32.90;64.68;100580.84;5026113;28;69310;-36
2022/06/02 08:44:23;;;;;;;5.45;4.57;;;;;;;32.79;64.78;100584.44;5049999;28;66709;-36
2022/06/02 08:47:24;;;;;;;5.85;4.78;;;;;;;32.72;65.05;100597.31;5061242;28;69594;-37
2022/06/02 08:50:10;;;;;;;5.67;4.70;;;;;;;32.85;64.66;100588.06;5041148;28;66011;-36
2022/06/02 08:53:17;;;;;;;4.35;3.58;;;;;;;32.75;65.03;100566.13;5058594;28;69767;-37
2022/06/02 08:56:13;;;;;;;4.60;4.10;;;;;;;32.76;65.14;100567.75;5059587;28;66280;-37
2022/06/02 08:59:07;;;;;;;5.38;4.05;;;;;;;32.68;65.32;100605.09;5033394;28;69876;-36
2022/06/02 09:02:05;;;;;;;4.50;3.90;;;;;;;32.67;65.06;100640.63;5056810;28;65443;-37
2022/06/02 09:04:45;;;;;;;5.80;3.97;;;;;;;32.71;65.06;100658.13;5059130;28;69582;-37
2022/06/02 09:07:43;;;;;;;3.67;3.30;;;;;;;32.74;64.68;100652.22;5055342;28;65683;-36
2022/06/02 09:10:24;;;;;;;4.35;3.80;;;;;;;32.29;64.97;100582.22;5059892;28;70711;-37
2022/06/02 09:13:29;;;;;;;7.05;3.70;;;;;;;32.63;65.12;100624.00;5046357;28;66036;-37
2022/06/02 09:16:04;;;;;;;3.88;2.80;;;;;;;32.66;65.00;100625.41;5003655;28;70414;-36
2022/06/02 09:18:55;;;;;;;3.17;2.90;;;;;;;32.66;65.00;100609.94;5041355;28;66049;-36
2022/06/02 09:22:00;;;;;;;3.92;3.10;;;;;;;32.15;65.21;100546.38;5044220;28;70176;-36
2022/06/02 09:24:58;;;;;;;3.05;2.75;;;;;;;32.20;65.10;100532.06;5057565;28;66467;-36
2022/06/02 09:27:55;;;;;;;3.65;3.15;;;;;;;32.44;65.26;100566.28;5046503;28;69880;-36
2022/06/02 09:30:44;;;;;;;2.88;2.58;;;;;;;32.49;65.11;100574.56;5055352;28;66209;-36
2022/06/02 09:33:45;;;;;;;2.58;2.38;;;;;;;32.43;65.02;100608.06;5051108;28;70040;-37
2022/06/02 09:36:41;;;;;;;3.33;3.03;;;;;;;32.35;65.61;100627.44;5038686;28;66536;-37
2022/06/02 09:39:54;;;;;;;4.32;4.00;;;;;;;32.36;65.32;100637.22;5044082;28;70364;-37
2022/06/02 09:42:44;;;;;;;4.43;4.03;;;;;;;32.33;65.82;100645.81;5059542;28;66262;-37
2022/06/02 09:45:30;;;;;;;4.20;3.80;;;;;;;32.36;65.18;100642.63;5039155;28;70126;-35
2022/06/02 09:48:45;;;;;;;5.03;4.60;;;;;;;32.37;65.27;100625.28;5031279;28;65772;-35
2022/06/02 09:52:02;;;;;;;3.75;3.45;;;;;;;32.14;65.55;100615.25;5042536;28;69202;-36
2022/06/02 09:54:53;;;;;;;4.20;3.38;;;;;;;32.23;65.70;100619.28;5033900;28;66413;-36
2022/06/02 09:57:56;;;;;;;9.70;6.03;;;;;;;32.02;67.37;100617.97;5055337;28;70474;-35
2022/06/02 10:00:50;;;;;;;9.48;8.60;;;;;;;31.68;69.95;100605.97;5060776;28;64548;-35
2022/06/02 10:03:33;;;;;;;10.50;9.32;;;;;;;31.61;70.49;100605.25;5064081;28;69630;-36
2022/06/02 10:06:30;;;;;;;11.68;10.27;;;;;;;31.16;70.99;100538.72;5065091;28;66635;-37
2022/06/02 10:09:25;;;;;;;14.75;11.73;;;;;;;31.47;71.83;100601.06;5067216;28;69771;-36
2022/06/02 10:11:56;;;;;;;21.25;11.15;;;;;;;31.40;72.27;100595.78;5039222;28;66303;-37
2022/06/02 10:14:55;;;;;;;12.70;11.50;;;;;;;31.26;72.90;100611.34;5044030;28;69070;-36
2022/06/02 10:18:14;;;;;;;13.73;11.93;;;;;;;31.21;73.36;100599.56;5070693;28;66525;-37
2022/06/02 10:21:04;;;;;;;12.43;11.30;;;;;;;31.20;73.44;100598.69;5068366;28;69504;-37
2022/06/02 10:23:56;;;;;;;13.32;11.00;;;;;;;31.22;73.55;100612.03;5071996;28;66971;-37
2022/06/02 10:26:45;;;;;;;11.52;10.07;;;;;;;31.23;73.76;100613.66;5074879;28;70549;-35
2022/06/02 10:29:56;;;;;;;12.02;10.73;;;;;;;31.13;74.61;100620.47;5052637;28;66319;-36
2022/06/02 10:32:46;;;;;;;11.27;10.02;;;;;;;30.84;74.61;100586.03;5068388;28;69945;-36
2022/06/02 10:35:56;;;;;;;13.20;10.60;;;;;;;31.11;74.56;100625.28;5070742;28;67095;-37
2022/06/02 10:38:30;;;;;;;10.13;9.13;;;;;;;31.09;74.01;100619.28;5034862;28;70147;-36
2022/06/02 10:41:35;;;;;;;9.70;8.80;;;;;;;31.09;75.12;100637.41;5070032;28;66279;-37
2022/06/02 10:44:16;;;;;;;11.23;8.77;;;;;;;31.12;75.21;100629.66;5076234;28;70455;-37
2022/06/02 10:47:02;;;;;;;9.20;8.25;;;;;;;31.11;74.42;100628.00;5079375;28;66258;-37
2022/06/02 10:49:53;;;;;;;8.98;8.38;;;;;;;31.09;74.63;100643.69;5074314;28;70632;-36
2022/06/02 10:52:48;;;;;;;10.27;7.28;;;;;;;31.23;73.24;100640.78;5067672;27;66688;-36
2022/06/02 10:55:39;;;;;;;8.70;6.30;;;;;;;31.33;72.50;100652.72;5065087;28;69345;-37
2022/06/02 10:58:39;;;;;;;6.45;5.55;;;;;;;30.66;72.71;100568.72;5043474;28;64760;-36
2022/06/02 11:01:44;;;;;;;5.57;5.18;;;;;;;31.36;72.73;100692.13;5037060;28;70147;-37
2022/06/02 11:04:51;;;;;;;7.72;5.72;;;;;;;31.42;72.47;100688.50;5047953;28;66604;-36
2022/06/02 11:07:43;;;;;;;6.18;5.65;;;;;;;31.58;71.68;100698.72;5049635;28;70266;-36
2022/06/02 11:10:28;;;;;;;5.18;4.78;;;;;;;31.57;71.85;100701.66;5053992;28;65659;-35
2022/06/02 11:13:36;;;;;;;5.70;5.22;;;;;;;31.54;71.66;100712.97;5045377;28;70326;-36
2022/06/02 11:16:10;;;;;;;5.40;5.00;;;;;;;31.67;71.33;100717.38;5043127;28;66053;-35
2022/06/02 11:19:21;;;;;;;5.40;4.90;;;;;;;31.19;71.75;100663.97;5041344;28;70106;-36
2022/06/02 11:22:22;;;;;;;5.47;5.07;;;;;;;31.65;71.08;100735.75;5044817;28;66596;-36
2022/06/02 11:25:53;;;;;;;5.05;4.75;;;;;;;31.61;71.57;100741.63;5050039;28;69123;-36
2022/06/02 11:28:49;;;;;;;5.40;5.00;;;;;;;31.72;71.52;100741.94;5024715;28;65101;-36
2022/06/02 11:31:29;;;;;;;6.53;5.25;;;;;;;31.71;71.18;100751.13;5050351;28;69833;-36
2022/06/02 11:34:17;;;;;;;5.80;4.93;;;;;;;31.75;71.11;100757.72;5038880;28;66401;-37
2022/06/02 11:37:15;;;;;;;5.18;4.78;;;;;;;31.70;70.81;100754.88;5040588;28;69993;-35
2022/06/02 11:40:17;;;;;;;5.70;5.30;;;;;;;31.66;71.29;100750.97;5045476;28;65652;-36
2022/06/02 11:43:14;;;;;;;6.32;4.80;;;;;;;31.56;71.31;100730.63;5020969;28;69210;-36
2022/06/02 11:45:57;;;;;;;5.25;4.85;;;;;;;31.73;71.56;100738.13;5025295;28;64806;-35
2022/06/02 11:48:50;;;;;;;5.97;5.47;;;;;;;31.04;71.22;100621.84;5044760;28;69878;-37
2022/06/02 11:51:47;;;;;;;7.03;6.53;;;;;;;31.65;71.53;100736.59;5027967;28;65456;-37
2022/06/02 11:54:45;;;;;;;7.35;6.72;;;;;;;31.65;71.11;100747.44;5038404;28;69962;-35
2022/06/02 11:57:28;;;;;;;7.28;6.70;;;;;;;31.71;71.12;100751.13;5057238;28;65453;-36
2022/06/02 12:00:14;;;;;;;7.65;6.88;;;;;;;31.36;71.31;100689.41;5071957;28;70204;-36
2022/06/02 12:03:15;;;;;;;8.10;7.13;;;;;;;31.69;70.93;100764.09;5069585;28;66567;-35
2022/06/02 12:06:14;;;;;;;7.97;7.20;;;;;;;31.76;70.88;100767.50;5070506;28;69989;-36
2022/06/02 12:09:11;;;;;;;8.68;7.80;;;;;;;31.37;73.21;100764.25;5051385;28;65189;-42
2022/06/02 12:11:59;;;;;;;15.15;7.93;;;;;;;31.32;74.10;100777.63;5043302;28;69615;-39
2022/06/02 12:15:07;;;;;;;13.95;8.30;;;;;;;31.19;75.30;100780.50;5067511;28;65699;-39
2022/06/02 12:17:53;;;;;;;13.93;8.48;;;;;;;31.15;75.23;100775.53;5066619;28;69654;-40
2022/06/02 12:20:33;;;;;;;12.10;8.15;;;;;;;31.08;75.58;100774.75;5072257;28;65753;-39
2022/06/02 12:23:31;;;;;;;85.03;51.97;;;;;;;31.20;74.12;100782.13;5069229;28;70198;-39
2022/06/02 12:26:28;;;;;;;81.97;55.80;;;;;;;30.73;75.01;100777.16;5033667;28;65986;-38
2022/06/02 12:29:23;;;;;;;51.60;35.92;;;;;;;30.76;75.12;100794.81;5044966;28;70006;-38
2022/06/02 12:32:42;;;;;;;34.65;28.13;;;;;;;30.28;76.86;100785.41;5059395;28;65860;-39
2022/06/02 12:35:40;;;;;;;27.42;22.73;;;;;;;30.10;76.55;100783.41;5060531;28;70820;-38
2022/06/02 12:38:48;;;;;;;22.33;19.80;;;;;;;30.12;76.80;100808.38;5040202;28;65824;-40
2022/06/02 12:41:31;;;;;;;23.38;20.88;;;;;;;30.23;77.78;100807.72;5051260;28;68999;-40
2022/06/02 12:44:37;;;;;;;34.10;21.80;;;;;;;30.25;77.38;100811.00;5070482;28;66543;-43
2022/06/02 12:47:40;;;;;;;25.83;18.70;;;;;;;30.18;77.99;100818.31;5044904;28;69791;-39
2022/06/02 12:50:47;;;;;;;21.52;17.13;;;;;;;30.14;78.12;100822.50;5064139;28;66009;-40
2022/06/02 12:53:40;;;;;;;22.15;14.85;;;;;;;30.13;78.70;100837.09;5068696;28;69212;-39
2022/06/02 12:56:34;;;;;;;18.42;14.45;;;;;;;30.24;78.32;100831.00;5045757;28;65339;-40
2022/06/02 12:59:33;;;;;;;22.95;14.25;;;;;;;30.16;78.65;100828.53;5075441;28;69834;-40
2022/06/02 13:02:22;;;;;;;13.85;12.45;;;;;;;30.13;78.43;100820.84;5071595;28;66352;-41
2022/06/02 13:04:52;;;;;;;14.93;13.38;;;;;;;30.18;78.81;100829.16;5075543;28;70623;-39
2022/06/02 13:08:11;;;;;;;20.23;13.02;;;;;;;30.03;79.20;100825.88;5061499;28;66134;-40
2022/06/02 13:11:12;;;;;;;13.80;12.35;;;;;;;30.06;79.60;100830.84;5010790;28;69217;-40
2022/06/02 13:14:04;;;;;;;19.30;12.73;;;;;;;30.15;79.05;100836.88;5047358;28;43208;-39
2022/06/02 13:16:57;;;;;;;14.70;11.02;;;;;;;30.16;79.62;100841.22;5063043;28;70176;-40
2022/06/02 13:19:28;;;;;;;12.27;11.18;;;;;;;30.12;79.25;100835.44;5031980;28;65092;-41
2022/06/02 13:22:11;;;;;;;13.70;10.50;;;;;;;30.09;79.58;100838.56;5073856;28;70137;-41
2022/06/02 13:25:06;;;;;;;12.00;10.93;;;;;;;30.10;79.49;100836.69;5069317;28;66206;-40
2022/06/02 13:27:56;;;;;;;12.82;10.48;;;;;;;30.11;79.58;100839.16;5052384;28;70487;-41
2022/06/02 13:31:10;;;;;;;10.48;9.55;;;;;;;29.98;79.96;100844.66;5059800;28;65950;-41